sensor_id;sensor_type;location;lat;lon;timestamp;P1;durP1;ratioP1;P2;durP2;ratioP2
57889;SDS011;43707;50.184;18.966;2024-01-30T00:01:27;3.20;;;2.60;;
57889;SDS011;43707;50.184;18.966;2024-01-30T00:03:53;3.50;;;3.00;;
57889;SDS011;43707;50.184;18.966;2024-01-30T00:06:18;3.20;;;2.60;;
57889;SDS011;43707;50.184;18.966;2024-01-30T00:08:46;4.40;;;2.80;;
57889;SDS011;43707;50.184;18.966;2024-01-30T00:11:14;3.30;;;2.70;;
57889;SDS011;43707;50.184;18.966;2024-01-30T00:13:40;5.30;;;2.60;;
57889;SDS011;43707;50.184;18.966;2024-01-30T00:16:05;5.90;;;2.60;;
57889;SDS011;43707;50.184;18.966;2024-01-30T00:18:31;4.10;;;3.10;;
57889;SDS011;43707;50.184;18.966;2024-01-30T00:20:57;3.70;;;2.40;;
57889;SDS011;43707;50.184;18.966;2024-01-30T00:23:22;3.00;;;2.00;;
57889;SDS011;43707;50.184;18.966;2024-01-30T00:25:48;3.00;;;2.40;;
57889;SDS011;43707;50.184;18.966;2024-01-30T00:28:13;4.00;;;2.20;;
57889;SDS011;43707;50.184;18.966;2024-01-30T00:30:39;2.60;;;1.90;;
57889;SDS011;43707;50.184;18.966;2024-01-30T00:33:04;2.10;;;1.90;;
57889;SDS011;43707;50.184;18.966;2024-01-30T00:35:30;2.30;;;1.80;;
57889;SDS011;43707;50.184;18.966;2024-01-30T00:37:55;2.40;;;2.00;;
57889;SDS011;43707;50.184;18.966;2024-01-30T00:40:22;2.20;;;1.90;;
57889;SDS011;43707;50.184;18.966;2024-01-30T00:42:48;2.10;;;1.60;;
57889;SDS011;43707;50.184;18.966;2024-01-30T00:45:14;2.50;;;1.60;;
57889;SDS011;43707;50.184;18.966;2024-01-30T00:47:39;1.90;;;1.60;;
57889;SDS011;43707;50.184;18.966;2024-01-30T00:50:05;2.70;;;1.80;;
57889;SDS011;43707;50.184;18.966;2024-01-30T00:52:31;2.00;;;1.70;;
57889;SDS011;43707;50.184;18.966;2024-01-30T00:54:58;3.10;;;1.90;;
57889;SDS011;43707;50.184;18.966;2024-01-30T00:57:24;2.60;;;1.80;;
57889;SDS011;43707;50.184;18.966;2024-01-30T00:59:49;2.50;;;1.60;;
57889;SDS011;43707;50.184;18.966;2024-01-30T01:02:15;2.30;;;1.80;;
57889;SDS011;43707;50.184;18.966;2024-01-30T01:04:43;1.70;;;1.60;;
57889;SDS011;43707;50.184;18.966;2024-01-30T01:07:09;2.80;;;1.80;;
57889;SDS011;43707;50.184;18.966;2024-01-30T01:09:35;2.00;;;1.50;;
57889;SDS011;43707;50.184;18.966;2024-01-30T01:12:02;2.20;;;1.50;;
57889;SDS011;43707;50.184;18.966;2024-01-30T01:14:27;1.50;;;1.20;;
57889;SDS011;43707;50.184;18.966;2024-01-30T01:16:53;2.10;;;1.60;;
57889;SDS011;43707;50.184;18.966;2024-01-30T01:19:19;2.40;;;1.80;;
57889;SDS011;43707;50.184;18.966;2024-01-30T01:21:44;1.70;;;1.50;;
57889;SDS011;43707;50.184;18.966;2024-01-30T01:24:10;2.30;;;1.60;;
57889;SDS011;43707;50.184;18.966;2024-01-30T01:26:35;2.00;;;1.60;;
57889;SDS011;43707;50.184;18.966;2024-01-30T01:29:00;2.10;;;1.60;;
57889;SDS011;43707;50.184;18.966;2024-01-30T01:31:26;5.20;;;2.50;;
57889;SDS011;43707;50.184;18.966;2024-01-30T01:33:54;2.10;;;1.90;;
57889;SDS011;43707;50.184;18.966;2024-01-30T01:36:20;6.40;;;1.50;;
57889;SDS011;43707;50.184;18.966;2024-01-30T01:38:46;2.70;;;1.80;;
57889;SDS011;43707;50.184;18.966;2024-01-30T01:41:11;3.50;;;1.30;;
57889;SDS011;43707;50.184;18.966;2024-01-30T01:43:37;1.60;;;1.30;;
57889;SDS011;43707;50.184;18.966;2024-01-30T01:46:04;2.70;;;1.80;;
57889;SDS011;43707;50.184;18.966;2024-01-30T01:48:30;5.70;;;1.50;;
57889;SDS011;43707;50.184;18.966;2024-01-30T01:50:56;4.40;;;2.00;;
57889;SDS011;43707;50.184;18.966;2024-01-30T01:53:22;2.60;;;1.10;;
57889;SDS011;43707;50.184;18.966;2024-01-30T01:55:47;1.90;;;1.70;;
57889;SDS011;43707;50.184;18.966;2024-01-30T01:58:13;1.40;;;1.10;;
57889;SDS011;43707;50.184;18.966;2024-01-30T02:00:39;2.30;;;1.60;;
57889;SDS011;43707;50.184;18.966;2024-01-30T02:03:07;2.00;;;1.80;;
57889;SDS011;43707;50.184;18.966;2024-01-30T02:05:34;3.00;;;1.50;;
57889;SDS011;43707;50.184;18.966;2024-01-30T02:08:00;4.80;;;1.60;;
57889;SDS011;43707;50.184;18.966;2024-01-30T02:10:26;2.50;;;2.20;;
57889;SDS011;43707;50.184;18.966;2024-01-30T02:12:51;2.10;;;1.90;;
57889;SDS011;43707;50.184;18.966;2024-01-30T02:15:17;2.30;;;1.50;;
57889;SDS011;43707;50.184;18.966;2024-01-30T02:17:43;1.90;;;1.40;;
57889;SDS011;43707;50.184;18.966;2024-01-30T02:20:08;2.10;;;1.50;;
57889;SDS011;43707;50.184;18.966;2024-01-30T02:22:34;1.80;;;1.40;;
57889;SDS011;43707;50.184;18.966;2024-01-30T02:25:01;1.50;;;1.20;;
57889;SDS011;43707;50.184;18.966;2024-01-30T02:27:27;1.60;;;1.20;;
57889;SDS011;43707;50.184;18.966;2024-01-30T02:29:53;1.60;;;1.00;;
57889;SDS011;43707;50.184;18.966;2024-01-30T02:32:18;1.40;;;1.00;;
57889;SDS011;43707;50.184;18.966;2024-01-30T02:34:43;1.20;;;1.10;;
57889;SDS011;43707;50.184;18.966;2024-01-30T02:37:09;1.10;;;0.80;;
57889;SDS011;43707;50.184;18.966;2024-01-30T02:39:34;1.40;;;1.00;;
57889;SDS011;43707;50.184;18.966;2024-01-30T02:42:00;1.80;;;1.00;;
57889;SDS011;43707;50.184;18.966;2024-01-30T02:44:25;1.70;;;1.10;;
57889;SDS011;43707;50.184;18.966;2024-01-30T02:46:51;2.00;;;1.10;;
57889;SDS011;43707;50.184;18.966;2024-01-30T02:49:16;1.90;;;1.00;;
57889;SDS011;43707;50.184;18.966;2024-01-30T02:51:41;2.60;;;1.10;;
57889;SDS011;43707;50.184;18.966;2024-01-30T02:54:07;1.70;;;1.40;;
57889;SDS011;43707;50.184;18.966;2024-01-30T02:56:32;1.30;;;1.00;;
57889;SDS011;43707;50.184;18.966;2024-01-30T02:58:58;1.70;;;1.10;;
57889;SDS011;43707;50.184;18.966;2024-01-30T03:01:23;2.10;;;1.30;;
57889;SDS011;43707;50.184;18.966;2024-01-30T03:03:49;1.10;;;0.90;;
57889;SDS011;43707;50.184;18.966;2024-01-30T03:06:15;6.40;;;1.70;;
57889;SDS011;43707;50.184;18.966;2024-01-30T03:08:42;1.40;;;1.30;;
57889;SDS011;43707;50.184;18.966;2024-01-30T03:11:08;2.00;;;1.50;;
57889;SDS011;43707;50.184;18.966;2024-01-30T03:13:33;1.80;;;1.20;;
57889;SDS011;43707;50.184;18.966;2024-01-30T03:15:59;1.20;;;1.00;;
57889;SDS011;43707;50.184;18.966;2024-01-30T03:18:24;1.80;;;1.30;;
57889;SDS011;43707;50.184;18.966;2024-01-30T03:20:50;1.50;;;0.90;;
57889;SDS011;43707;50.184;18.966;2024-01-30T03:23:15;1.50;;;1.00;;
57889;SDS011;43707;50.184;18.966;2024-01-30T03:25:40;1.30;;;1.00;;
57889;SDS011;43707;50.184;18.966;2024-01-30T03:28:06;1.40;;;0.90;;
57889;SDS011;43707;50.184;18.966;2024-01-30T03:30:31;1.20;;;0.70;;
57889;SDS011;43707;50.184;18.966;2024-01-30T03:32:57;0.80;;;0.60;;
57889;SDS011;43707;50.184;18.966;2024-01-30T03:35:22;0.90;;;0.70;;
57889;SDS011;43707;50.184;18.966;2024-01-30T03:37:48;0.70;;;0.60;;
57889;SDS011;43707;50.184;18.966;2024-01-30T03:40:13;1.00;;;0.60;;
57889;SDS011;43707;50.184;18.966;2024-01-30T03:42:39;0.70;;;0.60;;
57889;SDS011;43707;50.184;18.966;2024-01-30T03:45:04;0.80;;;0.80;;
57889;SDS011;43707;50.184;18.966;2024-01-30T03:47:30;0.70;;;0.60;;
57889;SDS011;43707;50.184;18.966;2024-01-30T03:49:56;1.00;;;0.70;;
57889;SDS011;43707;50.184;18.966;2024-01-30T03:52:21;1.30;;;0.80;;
57889;SDS011;43707;50.184;18.966;2024-01-30T03:54:46;0.70;;;0.70;;
57889;SDS011;43707;50.184;18.966;2024-01-30T03:57:12;1.00;;;0.70;;
57889;SDS011;43707;50.184;18.966;2024-01-30T03:59:37;1.30;;;0.90;;
57889;SDS011;43707;50.184;18.966;2024-01-30T04:02:03;1.80;;;1.00;;
57889;SDS011;43707;50.184;18.966;2024-01-30T04:04:28;1.70;;;1.20;;
57889;SDS011;43707;50.184;18.966;2024-01-30T04:06:54;1.80;;;1.10;;
57889;SDS011;43707;50.184;18.966;2024-01-30T04:09:19;1.40;;;0.90;;
57889;SDS011;43707;50.184;18.966;2024-01-30T04:11:45;1.10;;;0.70;;
57889;SDS011;43707;50.184;18.966;2024-01-30T04:14:10;1.40;;;0.90;;
57889;SDS011;43707;50.184;18.966;2024-01-30T04:16:36;1.30;;;1.10;;
57889;SDS011;43707;50.184;18.966;2024-01-30T04:19:01;1.40;;;0.90;;
57889;SDS011;43707;50.184;18.966;2024-01-30T04:21:27;1.50;;;0.90;;
57889;SDS011;43707;50.184;18.966;2024-01-30T04:23:52;1.80;;;1.20;;
57889;SDS011;43707;50.184;18.966;2024-01-30T04:26:18;1.70;;;0.90;;
57889;SDS011;43707;50.184;18.966;2024-01-30T04:28:44;1.60;;;1.10;;
57889;SDS011;43707;50.184;18.966;2024-01-30T04:31:10;1.50;;;1.00;;
57889;SDS011;43707;50.184;18.966;2024-01-30T04:33:36;2.20;;;1.10;;
57889;SDS011;43707;50.184;18.966;2024-01-30T04:36:01;1.20;;;0.70;;
57889;SDS011;43707;50.184;18.966;2024-01-30T04:38:28;1.20;;;0.70;;
57889;SDS011;43707;50.184;18.966;2024-01-30T04:40:53;1.10;;;0.70;;
57889;SDS011;43707;50.184;18.966;2024-01-30T04:43:19;0.90;;;0.70;;
57889;SDS011;43707;50.184;18.966;2024-01-30T04:45:44;0.80;;;0.60;;
57889;SDS011;43707;50.184;18.966;2024-01-30T04:48:10;0.90;;;0.70;;
57889;SDS011;43707;50.184;18.966;2024-01-30T04:50:35;0.70;;;0.60;;
57889;SDS011;43707;50.184;18.966;2024-01-30T04:53:01;0.80;;;0.60;;
57889;SDS011;43707;50.184;18.966;2024-01-30T04:55:26;0.70;;;0.50;;
57889;SDS011;43707;50.184;18.966;2024-01-30T04:57:52;0.90;;;0.60;;
57889;SDS011;43707;50.184;18.966;2024-01-30T05:00:17;0.40;;;0.40;;
57889;SDS011;43707;50.184;18.966;2024-01-30T05:02:43;0.50;;;0.40;;
57889;SDS011;43707;50.184;18.966;2024-01-30T05:05:09;0.90;;;0.60;;
57889;SDS011;43707;50.184;18.966;2024-01-30T05:07:34;2.30;;;0.60;;
57889;SDS011;43707;50.184;18.966;2024-01-30T05:09:59;0.80;;;0.40;;
57889;SDS011;43707;50.184;18.966;2024-01-30T05:12:25;0.50;;;0.40;;
57889;SDS011;43707;50.184;18.966;2024-01-30T05:14:51;0.70;;;0.60;;
57889;SDS011;43707;50.184;18.966;2024-01-30T05:17:16;1.60;;;0.50;;
57889;SDS011;43707;50.184;18.966;2024-01-30T05:19:42;0.40;;;0.40;;
57889;SDS011;43707;50.184;18.966;2024-01-30T05:22:08;0.50;;;0.40;;
57889;SDS011;43707;50.184;18.966;2024-01-30T05:24:34;0.60;;;0.50;;
57889;SDS011;43707;50.184;18.966;2024-01-30T05:27:00;0.50;;;0.50;;
57889;SDS011;43707;50.184;18.966;2024-01-30T05:29:26;0.60;;;0.50;;
57889;SDS011;43707;50.184;18.966;2024-01-30T05:31:52;0.80;;;0.60;;
57889;SDS011;43707;50.184;18.966;2024-01-30T05:34:18;1.00;;;0.70;;
57889;SDS011;43707;50.184;18.966;2024-01-30T05:36:43;1.20;;;0.90;;
57889;SDS011;43707;50.184;18.966;2024-01-30T05:39:08;0.90;;;0.60;;
57889;SDS011;43707;50.184;18.966;2024-01-30T05:41:34;0.60;;;0.60;;
57889;SDS011;43707;50.184;18.966;2024-01-30T05:44:00;1.10;;;0.60;;
57889;SDS011;43707;50.184;18.966;2024-01-30T05:46:25;0.60;;;0.50;;
57889;SDS011;43707;50.184;18.966;2024-01-30T05:48:51;0.60;;;0.50;;
57889;SDS011;43707;50.184;18.966;2024-01-30T05:51:16;0.70;;;0.50;;
57889;SDS011;43707;50.184;18.966;2024-01-30T05:53:41;0.80;;;0.60;;
57889;SDS011;43707;50.184;18.966;2024-01-30T05:56:07;0.90;;;0.80;;
57889;SDS011;43707;50.184;18.966;2024-01-30T05:58:32;0.90;;;0.60;;
57889;SDS011;43707;50.184;18.966;2024-01-30T06:00:58;0.60;;;0.60;;
57889;SDS011;43707;50.184;18.966;2024-01-30T06:03:23;0.90;;;0.60;;
57889;SDS011;43707;50.184;18.966;2024-01-30T06:05:49;1.00;;;0.70;;
57889;SDS011;43707;50.184;18.966;2024-01-30T06:08:14;9.20;;;0.90;;
57889;SDS011;43707;50.184;18.966;2024-01-30T06:10:39;1.30;;;0.80;;
57889;SDS011;43707;50.184;18.966;2024-01-30T06:13:05;2.20;;;1.00;;
57889;SDS011;43707;50.184;18.966;2024-01-30T06:15:31;1.50;;;1.10;;
57889;SDS011;43707;50.184;18.966;2024-01-30T06:17:58;2.40;;;1.20;;
57889;SDS011;43707;50.184;18.966;2024-01-30T06:20:24;4.10;;;1.80;;
57889;SDS011;43707;50.184;18.966;2024-01-30T06:22:49;4.30;;;2.50;;
57889;SDS011;43707;50.184;18.966;2024-01-30T06:25:15;4.60;;;2.70;;
57889;SDS011;43707;50.184;18.966;2024-01-30T06:27:42;5.80;;;3.00;;
57889;SDS011;43707;50.184;18.966;2024-01-30T06:30:07;7.00;;;3.30;;
57889;SDS011;43707;50.184;18.966;2024-01-30T06:32:33;9.70;;;4.00;;
57889;SDS011;43707;50.184;18.966;2024-01-30T06:35:01;4.50;;;2.80;;
57889;SDS011;43707;50.184;18.966;2024-01-30T06:37:27;4.70;;;3.00;;
57889;SDS011;43707;50.184;18.966;2024-01-30T06:39:52;5.30;;;2.80;;
57889;SDS011;43707;50.184;18.966;2024-01-30T06:42:18;4.00;;;2.40;;
57889;SDS011;43707;50.184;18.966;2024-01-30T06:44:44;3.40;;;2.20;;
57889;SDS011;43707;50.184;18.966;2024-01-30T06:47:09;3.70;;;2.30;;
57889;SDS011;43707;50.184;18.966;2024-01-30T06:49:35;4.20;;;2.30;;
57889;SDS011;43707;50.184;18.966;2024-01-30T06:52:06;3.30;;;2.20;;
57889;SDS011;43707;50.184;18.966;2024-01-30T06:54:31;3.40;;;1.90;;
57889;SDS011;43707;50.184;18.966;2024-01-30T06:56:58;3.90;;;1.80;;
57889;SDS011;43707;50.184;18.966;2024-01-30T06:59:23;6.50;;;1.70;;
57889;SDS011;43707;50.184;18.966;2024-01-30T07:01:49;3.60;;;1.90;;
57889;SDS011;43707;50.184;18.966;2024-01-30T07:04:14;2.40;;;1.70;;
57889;SDS011;43707;50.184;18.966;2024-01-30T07:06:41;1.80;;;1.30;;
57889;SDS011;43707;50.184;18.966;2024-01-30T07:09:06;2.10;;;1.50;;
57889;SDS011;43707;50.184;18.966;2024-01-30T07:11:32;2.00;;;1.50;;
57889;SDS011;43707;50.184;18.966;2024-01-30T07:13:57;1.70;;;1.30;;
57889;SDS011;43707;50.184;18.966;2024-01-30T07:16:23;2.40;;;1.50;;
57889;SDS011;43707;50.184;18.966;2024-01-30T07:18:48;2.30;;;1.50;;
57889;SDS011;43707;50.184;18.966;2024-01-30T07:21:14;2.10;;;1.50;;
57889;SDS011;43707;50.184;18.966;2024-01-30T07:23:40;2.20;;;1.40;;
57889;SDS011;43707;50.184;18.966;2024-01-30T07:26:07;1.40;;;1.10;;
57889;SDS011;43707;50.184;18.966;2024-01-30T07:28:35;2.50;;;1.60;;
57889;SDS011;43707;50.184;18.966;2024-01-30T07:31:01;2.20;;;1.40;;
57889;SDS011;43707;50.184;18.966;2024-01-30T07:33:27;2.20;;;1.90;;
57889;SDS011;43707;50.184;18.966;2024-01-30T07:35:53;2.10;;;1.70;;
57889;SDS011;43707;50.184;18.966;2024-01-30T07:38:19;2.10;;;1.40;;
57889;SDS011;43707;50.184;18.966;2024-01-30T07:40:45;2.30;;;1.90;;
57889;SDS011;43707;50.184;18.966;2024-01-30T07:43:10;2.50;;;1.90;;
57889;SDS011;43707;50.184;18.966;2024-01-30T07:45:36;2.70;;;2.20;;
57889;SDS011;43707;50.184;18.966;2024-01-30T07:48:03;5.20;;;2.00;;
57889;SDS011;43707;50.184;18.966;2024-01-30T07:50:30;2.60;;;2.00;;
57889;SDS011;43707;50.184;18.966;2024-01-30T07:52:56;2.60;;;2.10;;
57889;SDS011;43707;50.184;18.966;2024-01-30T07:55:22;1.80;;;1.50;;
57889;SDS011;43707;50.184;18.966;2024-01-30T07:57:52;2.30;;;1.70;;
57889;SDS011;43707;50.184;18.966;2024-01-30T08:00:18;1.70;;;1.40;;
57889;SDS011;43707;50.184;18.966;2024-01-30T08:02:45;4.10;;;1.80;;
57889;SDS011;43707;50.184;18.966;2024-01-30T08:05:11;2.20;;;1.80;;
57889;SDS011;43707;50.184;18.966;2024-01-30T08:07:36;2.30;;;1.40;;
57889;SDS011;43707;50.184;18.966;2024-01-30T08:10:02;3.40;;;1.90;;
57889;SDS011;43707;50.184;18.966;2024-01-30T08:12:27;1.20;;;0.90;;
57889;SDS011;43707;50.184;18.966;2024-01-30T08:14:53;2.30;;;1.60;;
57889;SDS011;43707;50.184;18.966;2024-01-30T08:17:18;13.30;;;1.80;;
57889;SDS011;43707;50.184;18.966;2024-01-30T08:19:44;16.10;;;1.60;;
57889;SDS011;43707;50.184;18.966;2024-01-30T08:22:09;4.20;;;1.70;;
57889;SDS011;43707;50.184;18.966;2024-01-30T08:24:34;6.70;;;1.40;;
57889;SDS011;43707;50.184;18.966;2024-01-30T08:27:00;2.20;;;1.10;;
57889;SDS011;43707;50.184;18.966;2024-01-30T08:29:27;6.00;;;1.60;;
57889;SDS011;43707;50.184;18.966;2024-01-30T08:31:53;2.20;;;1.60;;
57889;SDS011;43707;50.184;18.966;2024-01-30T08:34:20;1.60;;;1.30;;
57889;SDS011;43707;50.184;18.966;2024-01-30T08:36:46;2.60;;;0.80;;
57889;SDS011;43707;50.184;18.966;2024-01-30T08:39:12;1.30;;;1.10;;
57889;SDS011;43707;50.184;18.966;2024-01-30T08:41:37;1.40;;;1.00;;
57889;SDS011;43707;50.184;18.966;2024-01-30T08:44:02;2.00;;;1.10;;
57889;SDS011;43707;50.184;18.966;2024-01-30T08:46:29;1.20;;;1.10;;
57889;SDS011;43707;50.184;18.966;2024-01-30T08:48:55;1.30;;;0.90;;
57889;SDS011;43707;50.184;18.966;2024-01-30T08:51:21;0.70;;;0.60;;
57889;SDS011;43707;50.184;18.966;2024-01-30T08:53:47;2.90;;;0.60;;
57889;SDS011;43707;50.184;18.966;2024-01-30T08:56:12;0.50;;;0.50;;
57889;SDS011;43707;50.184;18.966;2024-01-30T08:58:38;1.40;;;0.70;;
57889;SDS011;43707;50.184;18.966;2024-01-30T09:01:04;0.80;;;0.70;;
57889;SDS011;43707;50.184;18.966;2024-01-30T09:03:30;1.10;;;0.70;;
57889;SDS011;43707;50.184;18.966;2024-01-30T09:05:56;0.80;;;0.60;;
57889;SDS011;43707;50.184;18.966;2024-01-30T09:08:22;2.60;;;0.80;;
57889;SDS011;43707;50.184;18.966;2024-01-30T09:10:47;1.00;;;0.90;;
57889;SDS011;43707;50.184;18.966;2024-01-30T09:13:15;0.50;;;0.50;;
57889;SDS011;43707;50.184;18.966;2024-01-30T09:15:40;1.10;;;0.90;;
57889;SDS011;43707;50.184;18.966;2024-01-30T09:18:06;5.90;;;0.70;;
57889;SDS011;43707;50.184;18.966;2024-01-30T09:20:32;1.10;;;0.70;;
57889;SDS011;43707;50.184;18.966;2024-01-30T09:22:57;0.60;;;0.60;;
57889;SDS011;43707;50.184;18.966;2024-01-30T09:25:23;0.90;;;0.60;;
57889;SDS011;43707;50.184;18.966;2024-01-30T09:27:48;3.40;;;0.60;;
57889;SDS011;43707;50.184;18.966;2024-01-30T09:30:14;1.30;;;0.60;;
57889;SDS011;43707;50.184;18.966;2024-01-30T09:32:40;1.00;;;0.60;;
57889;SDS011;43707;50.184;18.966;2024-01-30T09:35:05;1.10;;;0.70;;
57889;SDS011;43707;50.184;18.966;2024-01-30T09:37:31;0.60;;;0.40;;
57889;SDS011;43707;50.184;18.966;2024-01-30T09:39:57;5.30;;;0.40;;
57889;SDS011;43707;50.184;18.966;2024-01-30T09:44:53;0.60;;;0.40;;
57889;SDS011;43707;50.184;18.966;2024-01-30T09:47:19;0.50;;;0.40;;
57889;SDS011;43707;50.184;18.966;2024-01-30T09:49:45;0.60;;;0.50;;
57889;SDS011;43707;50.184;18.966;2024-01-30T09:52:11;0.50;;;0.40;;
57889;SDS011;43707;50.184;18.966;2024-01-30T09:54:37;0.70;;;0.40;;
57889;SDS011;43707;50.184;18.966;2024-01-30T09:57:03;1.00;;;0.50;;
57889;SDS011;43707;50.184;18.966;2024-01-30T09:59:29;0.60;;;0.50;;
57889;SDS011;43707;50.184;18.966;2024-01-30T10:01:55;0.40;;;0.40;;
57889;SDS011;43707;50.184;18.966;2024-01-30T10:04:22;0.50;;;0.40;;
57889;SDS011;43707;50.184;18.966;2024-01-30T10:06:47;0.70;;;0.50;;
57889;SDS011;43707;50.184;18.966;2024-01-30T10:09:13;0.50;;;0.40;;
57889;SDS011;43707;50.184;18.966;2024-01-30T10:11:38;0.60;;;0.50;;
57889;SDS011;43707;50.184;18.966;2024-01-30T10:14:04;1.20;;;0.30;;
57889;SDS011;43707;50.184;18.966;2024-01-30T10:16:30;2.10;;;0.40;;
57889;SDS011;43707;50.184;18.966;2024-01-30T10:18:55;0.30;;;0.30;;
57889;SDS011;43707;50.184;18.966;2024-01-30T10:21:21;0.30;;;0.20;;
57889;SDS011;43707;50.184;18.966;2024-01-30T10:23:46;0.40;;;0.40;;
57889;SDS011;43707;50.184;18.966;2024-01-30T10:26:12;0.40;;;0.40;;
57889;SDS011;43707;50.184;18.966;2024-01-30T10:28:38;0.40;;;0.40;;
57889;SDS011;43707;50.184;18.966;2024-01-30T10:31:03;0.40;;;0.30;;
57889;SDS011;43707;50.184;18.966;2024-01-30T10:33:29;0.30;;;0.30;;
57889;SDS011;43707;50.184;18.966;2024-01-30T10:36:04;5.90;;;0.40;;
57889;SDS011;43707;50.184;18.966;2024-01-30T10:38:31;0.30;;;0.30;;
57889;SDS011;43707;50.184;18.966;2024-01-30T10:40:58;0.40;;;0.30;;
57889;SDS011;43707;50.184;18.966;2024-01-30T10:43:31;0.20;;;0.20;;
57889;SDS011;43707;50.184;18.966;2024-01-30T10:48:42;0.20;;;0.20;;
57889;SDS011;43707;50.184;18.966;2024-01-30T10:51:12;0.30;;;0.30;;
57889;SDS011;43707;50.184;18.966;2024-01-30T10:53:39;0.50;;;0.40;;
57889;SDS011;43707;50.184;18.966;2024-01-30T10:56:04;0.40;;;0.40;;
57889;SDS011;43707;50.184;18.966;2024-01-30T10:58:30;0.60;;;0.60;;
57889;SDS011;43707;50.184;18.966;2024-01-30T11:00:56;0.80;;;0.70;;
57889;SDS011;43707;50.184;18.966;2024-01-30T11:03:22;1.10;;;0.50;;
57889;SDS011;43707;50.184;18.966;2024-01-30T11:05:51;2.50;;;0.40;;
57889;SDS011;43707;50.184;18.966;2024-01-30T11:08:26;0.40;;;0.40;;
57889;SDS011;43707;50.184;18.966;2024-01-30T11:10:57;1.80;;;0.50;;
57889;SDS011;43707;50.184;18.966;2024-01-30T11:13:29;0.60;;;0.50;;
57889;SDS011;43707;50.184;18.966;2024-01-30T11:16:00;0.40;;;0.40;;
57889;SDS011;43707;50.184;18.966;2024-01-30T11:18:28;0.30;;;0.30;;
57889;SDS011;43707;50.184;18.966;2024-01-30T11:20:58;0.40;;;0.40;;
57889;SDS011;43707;50.184;18.966;2024-01-30T11:23:26;0.30;;;0.30;;
57889;SDS011;43707;50.184;18.966;2024-01-30T11:25:52;0.40;;;0.40;;
57889;SDS011;43707;50.184;18.966;2024-01-30T11:28:18;0.40;;;0.30;;
57889;SDS011;43707;50.184;18.966;2024-01-30T11:30:46;0.50;;;0.30;;
57889;SDS011;43707;50.184;18.966;2024-01-30T11:33:13;0.30;;;0.30;;
57889;SDS011;43707;50.184;18.966;2024-01-30T11:35:42;0.30;;;0.20;;
57889;SDS011;43707;50.184;18.966;2024-01-30T11:38:09;0.30;;;0.30;;
57889;SDS011;43707;50.184;18.966;2024-01-30T11:40:39;0.60;;;0.40;;
57889;SDS011;43707;50.184;18.966;2024-01-30T11:43:05;0.30;;;0.30;;
57889;SDS011;43707;50.184;18.966;2024-01-30T11:45:32;0.30;;;0.30;;
57889;SDS011;43707;50.184;18.966;2024-01-30T11:47:58;0.30;;;0.20;;
57889;SDS011;43707;50.184;18.966;2024-01-30T11:50:29;0.40;;;0.30;;
57889;SDS011;43707;50.184;18.966;2024-01-30T11:52:55;0.30;;;0.30;;
57889;SDS011;43707;50.184;18.966;2024-01-30T11:55:21;0.30;;;0.30;;
57889;SDS011;43707;50.184;18.966;2024-01-30T11:57:46;0.60;;;0.50;;
57889;SDS011;43707;50.184;18.966;2024-01-30T12:00:18;0.50;;;0.40;;
57889;SDS011;43707;50.184;18.966;2024-01-30T12:02:44;0.90;;;0.40;;
57889;SDS011;43707;50.184;18.966;2024-01-30T12:05:15;0.60;;;0.40;;
57889;SDS011;43707;50.184;18.966;2024-01-30T12:07:40;0.50;;;0.40;;
57889;SDS011;43707;50.184;18.966;2024-01-30T12:10:09;0.40;;;0.40;;
57889;SDS011;43707;50.184;18.966;2024-01-30T12:12:35;0.30;;;0.30;;
57889;SDS011;43707;50.184;18.966;2024-01-30T12:15:00;2.70;;;0.50;;
57889;SDS011;43707;50.184;18.966;2024-01-30T12:17:29;0.30;;;0.30;;
57889;SDS011;43707;50.184;18.966;2024-01-30T12:20:02;0.30;;;0.30;;
57889;SDS011;43707;50.184;18.966;2024-01-30T12:22:33;0.40;;;0.40;;
57889;SDS011;43707;50.184;18.966;2024-01-30T12:25:12;0.40;;;0.40;;
57889;SDS011;43707;50.184;18.966;2024-01-30T12:27:39;1.40;;;0.30;;
57889;SDS011;43707;50.184;18.966;2024-01-30T12:30:07;0.60;;;0.40;;
57889;SDS011;43707;50.184;18.966;2024-01-30T12:32:37;0.40;;;0.40;;
57889;SDS011;43707;50.184;18.966;2024-01-30T12:35:09;0.60;;;0.20;;
57889;SDS011;43707;50.184;18.966;2024-01-30T12:37:35;0.30;;;0.30;;
57889;SDS011;43707;50.184;18.966;2024-01-30T12:40:01;0.50;;;0.50;;
57889;SDS011;43707;50.184;18.966;2024-01-30T12:42:27;0.70;;;0.40;;
57889;SDS011;43707;50.184;18.966;2024-01-30T12:44:52;0.60;;;0.50;;
57889;SDS011;43707;50.184;18.966;2024-01-30T12:47:18;0.60;;;0.50;;
57889;SDS011;43707;50.184;18.966;2024-01-30T12:49:44;0.70;;;0.60;;
57889;SDS011;43707;50.184;18.966;2024-01-30T12:52:12;0.40;;;0.40;;
57889;SDS011;43707;50.184;18.966;2024-01-30T12:54:39;1.20;;;0.60;;
57889;SDS011;43707;50.184;18.966;2024-01-30T12:57:05;0.50;;;0.40;;
57889;SDS011;43707;50.184;18.966;2024-01-30T12:59:31;0.50;;;0.50;;
57889;SDS011;43707;50.184;18.966;2024-01-30T13:01:56;0.60;;;0.50;;
57889;SDS011;43707;50.184;18.966;2024-01-30T13:04:22;0.60;;;0.50;;
57889;SDS011;43707;50.184;18.966;2024-01-30T13:06:48;0.80;;;0.50;;
57889;SDS011;43707;50.184;18.966;2024-01-30T13:09:13;0.70;;;0.50;;
57889;SDS011;43707;50.184;18.966;2024-01-30T13:11:39;0.60;;;0.50;;
57889;SDS011;43707;50.184;18.966;2024-01-30T13:14:04;0.50;;;0.50;;
57889;SDS011;43707;50.184;18.966;2024-01-30T13:16:30;0.60;;;0.40;;
57889;SDS011;43707;50.184;18.966;2024-01-30T13:18:55;0.90;;;0.50;;
57889;SDS011;43707;50.184;18.966;2024-01-30T13:21:21;0.50;;;0.40;;
57889;SDS011;43707;50.184;18.966;2024-01-30T13:23:46;0.50;;;0.40;;
57889;SDS011;43707;50.184;18.966;2024-01-30T13:26:12;0.30;;;0.30;;
57889;SDS011;43707;50.184;18.966;2024-01-30T13:28:37;0.40;;;0.40;;
57889;SDS011;43707;50.184;18.966;2024-01-30T13:31:03;0.50;;;0.40;;
57889;SDS011;43707;50.184;18.966;2024-01-30T13:33:28;1.50;;;0.20;;
57889;SDS011;43707;50.184;18.966;2024-01-30T13:35:54;0.60;;;0.60;;
57889;SDS011;43707;50.184;18.966;2024-01-30T13:38:19;0.50;;;0.50;;
57889;SDS011;43707;50.184;18.966;2024-01-30T13:40:44;0.70;;;0.50;;
57889;SDS011;43707;50.184;18.966;2024-01-30T13:43:10;0.30;;;0.30;;
57889;SDS011;43707;50.184;18.966;2024-01-30T13:45:35;0.40;;;0.40;;
57889;SDS011;43707;50.184;18.966;2024-01-30T13:48:01;0.60;;;0.40;;
57889;SDS011;43707;50.184;18.966;2024-01-30T13:50:28;0.70;;;0.50;;
57889;SDS011;43707;50.184;18.966;2024-01-30T13:52:53;0.40;;;0.40;;
57889;SDS011;43707;50.184;18.966;2024-01-30T13:55:19;1.00;;;0.60;;
57889;SDS011;43707;50.184;18.966;2024-01-30T13:57:44;0.40;;;0.40;;
57889;SDS011;43707;50.184;18.966;2024-01-30T14:00:10;0.40;;;0.30;;
57889;SDS011;43707;50.184;18.966;2024-01-30T14:02:36;0.40;;;0.40;;
57889;SDS011;43707;50.184;18.966;2024-01-30T14:05:01;0.50;;;0.50;;
57889;SDS011;43707;50.184;18.966;2024-01-30T14:07:29;0.50;;;0.50;;
57889;SDS011;43707;50.184;18.966;2024-01-30T14:09:55;1.10;;;0.60;;
57889;SDS011;43707;50.184;18.966;2024-01-30T14:12:21;0.50;;;0.50;;
57889;SDS011;43707;50.184;18.966;2024-01-30T14:14:47;0.40;;;0.40;;
57889;SDS011;43707;50.184;18.966;2024-01-30T14:17:12;0.30;;;0.30;;
57889;SDS011;43707;50.184;18.966;2024-01-30T14:19:38;0.60;;;0.50;;
57889;SDS011;43707;50.184;18.966;2024-01-30T14:22:03;0.40;;;0.40;;
57889;SDS011;43707;50.184;18.966;2024-01-30T14:24:29;0.50;;;0.40;;
57889;SDS011;43707;50.184;18.966;2024-01-30T14:26:55;0.50;;;0.50;;
57889;SDS011;43707;50.184;18.966;2024-01-30T14:29:20;0.70;;;0.40;;
57889;SDS011;43707;50.184;18.966;2024-01-30T14:31:45;0.40;;;0.40;;